sensor_id;sensor_type;location;lat;lon;timestamp;pressure;altitude;pressure_sealevel;temperature;humidity
54854;BME280;40747;49.480;8.658;2024-02-21T00:00:39;101323.75;;;8.85;86.14
54854;BME280;40747;49.480;8.658;2024-02-21T00:03:05;101331.66;;;8.80;87.11
54854;BME280;40747;49.480;8.658;2024-02-21T00:05:31;101313.38;;;8.62;86.76
54854;BME280;40747;49.480;8.658;2024-02-21T00:07:59;101325.47;;;8.84;87.41
54854;BME280;40747;49.480;8.658;2024-02-21T00:10:24;101322.00;;;8.81;88.04
54854;BME280;40747;49.480;8.658;2024-02-21T00:12:50;101326.38;;;8.83;87.80
54854;BME280;40747;49.480;8.658;2024-02-21T00:15:16;101322.88;;;8.81;87.73
54854;BME280;40747;49.480;8.658;2024-02-21T00:17:41;101319.34;;;8.87;86.78
54854;BME280;40747;49.480;8.658;2024-02-21T00:20:07;101317.56;;;8.89;87.93
54854;BME280;40747;49.480;8.658;2024-02-21T00:22:32;101301.84;;;8.83;88.22
54854;BME280;40747;49.480;8.658;2024-02-21T00:24:58;101295.78;;;8.73;87.05
54854;BME280;40747;49.480;8.658;2024-02-21T00:27:24;101305.38;;;8.80;87.80
54854;BME280;40747;49.480;8.658;2024-02-21T00:29:49;101290.47;;;8.84;87.07
54854;BME280;40747;49.480;8.658;2024-02-21T00:32:15;101288.69;;;8.84;87.07
54854;BME280;40747;49.480;8.658;2024-02-21T00:34:40;101290.47;;;8.81;87.90
54854;BME280;40747;49.480;8.658;2024-02-21T00:37:06;101291.41;;;8.75;88.17
54854;BME280;40747;49.480;8.658;2024-02-21T00:39:31;101292.38;;;8.63;87.80
54854;BME280;40747;49.480;8.658;2024-02-21T00:41:57;101287.97;;;8.65;87.32
54854;BME280;40747;49.480;8.658;2024-02-21T00:44:22;101280.97;;;8.67;87.66
54854;BME280;40747;49.480;8.658;2024-02-21T00:46:47;101266.94;;;8.68;87.28
54854;BME280;40747;49.480;8.658;2024-02-21T00:49:13;101272.13;;;8.78;87.68
54854;BME280;40747;49.480;8.658;2024-02-21T00:51:38;101269.53;;;8.75;87.04
54854;BME280;40747;49.480;8.658;2024-02-21T00:54:03;101274.78;;;8.76;87.76
54854;BME280;40747;49.480;8.658;2024-02-21T00:56:29;101266.97;;;8.65;88.24
54854;BME280;40747;49.480;8.658;2024-02-21T00:58:55;101253.06;;;8.51;88.79
54854;BME280;40747;49.480;8.658;2024-02-21T01:01:23;101244.19;;;8.67;88.22
54854;BME280;40747;49.480;8.658;2024-02-21T01:03:49;101230.22;;;8.62;87.22
54854;BME280;40747;49.480;8.658;2024-02-21T01:06:14;101230.19;;;8.65;87.32
54854;BME280;40747;49.480;8.658;2024-02-21T01:08:40;101222.31;;;8.64;87.31
54854;BME280;40747;49.480;8.658;2024-02-21T01:11:05;101225.78;;;8.69;88.05
54854;BME280;40747;49.480;8.658;2024-02-21T01:13:30;101231.00;;;8.71;87.46
54854;BME280;40747;49.480;8.658;2024-02-21T01:15:56;101231.00;;;8.75;87.62
54854;BME280;40747;49.480;8.658;2024-02-21T01:18:21;101233.59;;;8.77;87.37
54854;BME280;40747;49.480;8.658;2024-02-21T01:20:46;101239.66;;;8.87;87.00
54854;BME280;40747;49.480;8.658;2024-02-21T01:23:11;101237.03;;;8.85;87.81
54854;BME280;40747;49.480;8.658;2024-02-21T01:25:37;101238.84;;;8.80;88.14
54854;BME280;40747;49.480;8.658;2024-02-21T01:28:02;101230.91;;;8.84;87.23
54854;BME280;40747;49.480;8.658;2024-02-21T01:30:27;101235.28;;;8.84;87.76
54854;BME280;40747;49.480;8.658;2024-02-21T01:32:53;101223.09;;;8.75;87.02
54854;BME280;40747;49.480;8.658;2024-02-21T01:35:18;101152.50;;;8.33;89.11
54854;BME280;40747;49.480;8.658;2024-02-21T01:37:43;101210.88;;;8.69;88.40
54854;BME280;40747;49.480;8.658;2024-02-21T01:40:09;101190.88;;;8.56;88.83
54854;BME280;40747;49.480;8.658;2024-02-21T01:42:38;101203.81;;;8.78;88.61
54854;BME280;40747;49.480;8.658;2024-02-21T01:45:05;101216.13;;;8.73;88.61
54854;BME280;40747;49.480;8.658;2024-02-21T01:47:30;101208.31;;;8.65;89.02
54854;BME280;40747;49.480;8.658;2024-02-21T01:49:56;101212.69;;;8.63;89.78
54854;BME280;40747;49.480;8.658;2024-02-21T01:52:21;101201.47;;;8.41;89.28
54854;BME280;40747;49.480;8.658;2024-02-21T01:54:47;101211.06;;;8.51;89.49
54854;BME280;40747;49.480;8.658;2024-02-21T01:57:13;101208.38;;;8.59;89.78
54854;BME280;40747;49.480;8.658;2024-02-21T01:59:38;101202.22;;;8.60;89.51
54854;BME280;40747;49.480;8.658;2024-02-21T02:02:04;101195.31;;;8.43;89.86
54854;BME280;40747;49.480;8.658;2024-02-21T02:04:29;101192.69;;;8.45;90.59
54854;BME280;40747;49.480;8.658;2024-02-21T02:06:55;101184.84;;;8.48;90.89
54854;BME280;40747;49.480;8.658;2024-02-21T02:09:20;101181.38;;;8.36;90.94
54854;BME280;40747;49.480;8.658;2024-02-21T02:11:46;101196.19;;;8.42;91.64
54854;BME280;40747;49.480;8.658;2024-02-21T02:14:11;101184.03;;;8.32;91.42
54854;BME280;40747;49.480;8.658;2024-02-21T02:16:37;101190.09;;;8.39;91.76
54854;BME280;40747;49.480;8.658;2024-02-21T02:19:02;101188.34;;;8.37;91.63
54854;BME280;40747;49.480;8.658;2024-02-21T02:21:34;101183.09;;;8.47;91.96
54854;BME280;40747;49.480;8.658;2024-02-21T02:24:03;101178.75;;;8.35;91.93
54854;BME280;40747;49.480;8.658;2024-02-21T02:26:29;101181.38;;;8.36;92.15
54854;BME280;40747;49.480;8.658;2024-02-21T02:28:55;101160.47;;;8.24;91.83
54854;BME280;40747;49.480;8.658;2024-02-21T02:31:20;101154.34;;;8.22;92.66
54854;BME280;40747;49.480;8.658;2024-02-21T02:33:45;101158.72;;;8.26;93.39
54854;BME280;40747;49.480;8.658;2024-02-21T02:36:11;101150.84;;;8.23;93.49
54854;BME280;40747;49.480;8.658;2024-02-21T02:38:36;101144.69;;;8.26;93.18
54854;BME280;40747;49.480;8.658;2024-02-21T02:41:02;101143.78;;;8.30;93.51
54854;BME280;40747;49.480;8.658;2024-02-21T02:43:27;101140.34;;;8.26;93.79
54854;BME280;40747;49.480;8.658;2024-02-21T02:45:52;101141.22;;;8.22;93.22
54854;BME280;40747;49.480;8.658;2024-02-21T02:48:18;101125.56;;;8.16;94.26
54854;BME280;40747;49.480;8.658;2024-02-21T02:50:45;101133.44;;;8.16;94.03
54854;BME280;40747;49.480;8.658;2024-02-21T02:53:10;101129.88;;;8.20;93.76
54854;BME280;40747;49.480;8.658;2024-02-21T02:55:36;101112.47;;;8.11;93.46
54854;BME280;40747;49.480;8.658;2024-02-21T02:58:01;101135.13;;;8.20;93.81
54854;BME280;40747;49.480;8.658;2024-02-21T03:00:26;101140.41;;;8.15;94.22
54854;BME280;40747;49.480;8.658;2024-02-21T03:02:52;101128.25;;;8.00;94.06
54854;BME280;40747;49.480;8.658;2024-02-21T03:05:21;101125.56;;;8.13;95.13
54854;BME280;40747;49.480;8.658;2024-02-21T03:07:48;101117.75;;;8.03;94.63
54854;BME280;40747;49.480;8.658;2024-02-21T03:10:14;101110.75;;;8.07;95.05
54854;BME280;40747;49.480;8.658;2024-02-21T03:12:41;101112.53;;;8.02;94.65
54854;BME280;40747;49.480;8.658;2024-02-21T03:15:07;101109.00;;;8.03;94.19
54854;BME280;40747;49.480;8.658;2024-02-21T03:17:33;101103.78;;;8.00;94.79
54854;BME280;40747;49.480;8.658;2024-02-21T03:19:59;101100.31;;;7.99;94.78
54854;BME280;40747;49.480;8.658;2024-02-21T03:22:25;101110.72;;;8.06;94.79
54854;BME280;40747;49.480;8.658;2024-02-21T03:24:51;101101.97;;;8.07;94.30
54854;BME280;40747;49.480;8.658;2024-02-21T03:27:16;101101.97;;;8.10;94.62
54854;BME280;40747;49.480;8.658;2024-02-21T03:29:42;101082.84;;;7.97;94.16
54854;BME280;40747;49.480;8.658;2024-02-21T03:32:07;101088.88;;;8.07;93.96
54854;BME280;40747;49.480;8.658;2024-02-21T03:34:32;101084.47;;;8.10;93.65
54854;BME280;40747;49.480;8.658;2024-02-21T03:36:58;101088.78;;;8.17;93.32
54854;BME280;40747;49.480;8.658;2024-02-21T03:39:24;101082.66;;;8.17;93.25
54854;BME280;40747;49.480;8.658;2024-02-21T03:41:49;101077.41;;;8.17;93.22
54854;BME280;40747;49.480;8.658;2024-02-21T03:44:14;101078.34;;;8.11;92.85
54854;BME280;40747;49.480;8.658;2024-02-21T03:46:41;101071.34;;;8.10;92.77
54854;BME280;40747;49.480;8.658;2024-02-21T03:49:06;101072.25;;;8.06;93.34
54854;BME280;40747;49.480;8.658;2024-02-21T03:51:32;101077.44;;;8.14;92.79
54854;BME280;40747;49.480;8.658;2024-02-21T03:53:57;101055.69;;;7.98;93.53
54854;BME280;40747;49.480;8.658;2024-02-21T03:56:23;101076.69;;;7.99;94.29
54854;BME280;40747;49.480;8.658;2024-02-21T03:58:49;101069.78;;;7.86;94.45
54854;BME280;40747;49.480;8.658;2024-02-21T04:01:15;101087.19;;;7.96;93.97
54854;BME280;40747;49.480;8.658;2024-02-21T04:03:40;101092.41;;;8.02;93.76
54854;BME280;40747;49.480;8.658;2024-02-21T04:06:06;101100.22;;;8.09;93.22
54854;BME280;40747;49.480;8.658;2024-02-21T04:08:31;101110.69;;;8.13;92.65
54854;BME280;40747;49.480;8.658;2024-02-21T04:10:56;101106.31;;;8.14;93.61
54854;BME280;40747;49.480;8.658;2024-02-21T04:13:21;101116.78;;;8.15;93.58
54854;BME280;40747;49.480;8.658;2024-02-21T04:15:48;101105.38;;;8.19;93.18
54854;BME280;40747;49.480;8.658;2024-02-21T04:18:13;101108.03;;;8.16;92.97
54854;BME280;40747;49.480;8.658;2024-02-21T04:20:40;101098.41;;;8.17;93.25
54854;BME280;40747;49.480;8.658;2024-02-21T04:23:05;101055.78;;;7.88;92.77
54854;BME280;40747;49.480;8.658;2024-02-21T04:25:30;101094.06;;;8.16;92.78
54854;BME280;40747;49.480;8.658;2024-02-21T04:27:55;101088.81;;;8.16;92.72
54854;BME280;40747;49.480;8.658;2024-02-21T04:30:21;101080.94;;;8.13;91.82
54854;BME280;40747;49.480;8.658;2024-02-21T04:32:46;101080.03;;;8.20;91.73
54854;BME280;40747;49.480;8.658;2024-02-21T04:35:11;101075.63;;;8.24;92.21
54854;BME280;40747;49.480;8.658;2024-02-21T04:37:36;101064.28;;;8.18;91.60
54854;BME280;40747;49.480;8.658;2024-02-21T04:40:02;101062.47;;;8.25;91.74
54854;BME280;40747;49.480;8.658;2024-02-21T04:42:27;101062.44;;;8.28;91.08
54854;BME280;40747;49.480;8.658;2024-02-21T04:44:52;101059.06;;;8.15;90.79
54854;BME280;40747;49.480;8.658;2024-02-21T04:47:18;101052.00;;;8.22;90.57
54854;BME280;40747;49.480;8.658;2024-02-21T04:49:45;101045.88;;;8.22;90.30
54854;BME280;40747;49.480;8.658;2024-02-21T04:52:11;101050.25;;;8.23;91.23
54854;BME280;40747;49.480;8.658;2024-02-21T04:54:36;101052.94;;;8.16;90.70
54854;BME280;40747;49.480;8.658;2024-02-21T04:57:01;101037.31;;;8.01;90.87
54854;BME280;40747;49.480;8.658;2024-02-21T04:59:26;101032.97;;;7.98;91.96
54854;BME280;40747;49.480;8.658;2024-02-21T05:01:52;101032.94;;;8.01;91.54
54854;BME280;40747;49.480;8.658;2024-02-21T05:04:17;101025.09;;;7.98;91.20
54854;BME280;40747;49.480;8.658;2024-02-21T05:06:42;101013.78;;;7.90;91.33
54854;BME280;40747;49.480;8.658;2024-02-21T05:09:08;101005.03;;;7.91;91.53
54854;BME280;40747;49.480;8.658;2024-02-21T05:11:34;101001.59;;;7.89;91.58
54854;BME280;40747;49.480;8.658;2024-02-21T05:14:00;101008.53;;;7.90;91.67
54854;BME280;40747;49.480;8.658;2024-02-21T05:16:25;101005.97;;;7.85;91.87
54854;BME280;40747;49.480;8.658;2024-02-21T05:18:50;101012.06;;;7.91;91.35
54854;BME280;40747;49.480;8.658;2024-02-21T05:21:16;101005.19;;;7.76;91.81
54854;BME280;40747;49.480;8.658;2024-02-21T05:23:41;101003.38;;;7.81;91.73
54854;BME280;40747;49.480;8.658;2024-02-21T05:26:07;100982.50;;;7.68;91.95
54854;BME280;40747;49.480;8.658;2024-02-21T05:28:32;101011.28;;;7.79;92.55
54854;BME280;40747;49.480;8.658;2024-02-21T05:30:57;101011.28;;;7.76;92.58
54854;BME280;40747;49.480;8.658;2024-02-21T05:33:23;101005.19;;;7.74;91.78
54854;BME280;40747;49.480;8.658;2024-02-21T05:35:49;101015.66;;;7.76;92.41
54854;BME280;40747;49.480;8.658;2024-02-21T05:38:14;101011.34;;;7.71;92.31
54854;BME280;40747;49.480;8.658;2024-02-21T05:40:40;100973.88;;;7.54;92.78
54854;BME280;40747;49.480;8.658;2024-02-21T05:43:07;100991.34;;;7.60;93.25
54854;BME280;40747;49.480;8.658;2024-02-21T05:45:32;100987.84;;;7.56;92.90
54854;BME280;40747;49.480;8.658;2024-02-21T05:47:58;100990.47;;;7.56;93.10
54854;BME280;40747;49.480;8.658;2024-02-21T05:50:23;101001.03;;;7.48;93.69
54854;BME280;40747;49.480;8.658;2024-02-21T05:52:51;100998.38;;;7.51;93.33
54854;BME280;40747;49.480;8.658;2024-02-21T05:55:17;100977.53;;;7.30;93.70
54854;BME280;40747;49.480;8.658;2024-02-21T05:57:42;100995.81;;;7.44;93.36
54854;BME280;40747;49.480;8.658;2024-02-21T06:00:08;100996.72;;;7.40;93.63
54854;BME280;40747;49.480;8.658;2024-02-21T06:02:33;100994.09;;;7.38;93.98
54854;BME280;40747;49.480;8.658;2024-02-21T06:04:59;100995.03;;;7.26;93.20
54854;BME280;40747;49.480;8.658;2024-02-21T06:07:24;100971.47;;;7.25;93.85
54854;BME280;40747;49.480;8.658;2024-02-21T06:09:49;100974.03;;;7.35;92.90
54854;BME280;40747;49.480;8.658;2024-02-21T06:12:15;100965.34;;;7.30;92.21
54854;BME280;40747;49.480;8.658;2024-02-21T06:14:40;100965.34;;;7.27;92.37
54854;BME280;40747;49.480;8.658;2024-02-21T06:17:05;100966.19;;;7.29;92.32
54854;BME280;40747;49.480;8.658;2024-02-21T06:19:30;100968.78;;;7.32;92.16
54854;BME280;40747;49.480;8.658;2024-02-21T06:21:56;100971.44;;;7.31;92.78
54854;BME280;40747;49.480;8.658;2024-02-21T06:24:21;100953.19;;;7.15;92.21
54854;BME280;40747;49.480;8.658;2024-02-21T06:26:47;100966.22;;;7.25;92.54
54854;BME280;40747;49.480;8.658;2024-02-21T06:29:12;100973.25;;;7.22;92.20
54854;BME280;40747;49.480;8.658;2024-02-21T06:31:39;100961.88;;;7.22;92.14
54854;BME280;40747;49.480;8.658;2024-02-21T06:34:04;100966.31;;;7.14;92.51
54854;BME280;40747;49.480;8.658;2024-02-21T06:36:30;100976.78;;;7.15;92.47
54854;BME280;40747;49.480;8.658;2024-02-21T06:38:55;100968.91;;;7.20;92.98
54854;BME280;40747;49.480;8.658;2024-02-21T06:41:20;100959.28;;;7.20;92.34
54854;BME280;40747;49.480;8.658;2024-02-21T06:43:46;100952.25;;;7.26;91.72
54854;BME280;40747;49.480;8.658;2024-02-21T06:46:12;100961.06;;;7.14;91.41
54854;BME280;40747;49.480;8.658;2024-02-21T06:48:37;100952.38;;;7.05;91.78
54854;BME280;40747;49.480;8.658;2024-02-21T06:51:03;100947.13;;;7.05;91.68
54854;BME280;40747;49.480;8.658;2024-02-21T06:53:29;100964.56;;;7.11;91.76
54854;BME280;40747;49.480;8.658;2024-02-21T06:55:54;100967.16;;;7.16;91.84
54854;BME280;40747;49.480;8.658;2024-02-21T06:58:19;100964.56;;;7.11;91.92
54854;BME280;40747;49.480;8.658;2024-02-21T07:00:45;100967.19;;;7.13;91.55
54854;BME280;40747;49.480;8.658;2024-02-21T07:03:10;100960.19;;;7.15;91.37
54854;BME280;40747;49.480;8.658;2024-02-21T07:05:35;100963.63;;;7.18;91.20
54854;BME280;40747;49.480;8.658;2024-02-21T07:08:01;100973.28;;;7.16;90.90
54854;BME280;40747;49.480;8.658;2024-02-21T07:10:26;100968.88;;;7.21;91.23
54854;BME280;40747;49.480;8.658;2024-02-21T07:12:54;100940.13;;;7.09;91.03
54854;BME280;40747;49.480;8.658;2024-02-21T07:15:19;100968.81;;;7.29;90.81
54854;BME280;40747;49.480;8.658;2024-02-21T07:17:45;100972.31;;;7.30;91.25
54854;BME280;40747;49.480;8.658;2024-02-21T07:20:10;100961.75;;;7.42;89.90
54854;BME280;40747;49.480;8.658;2024-02-21T07:22:36;100959.03;;;7.53;89.42
54854;BME280;40747;49.480;8.658;2024-02-21T07:25:01;100952.94;;;7.51;88.80
54854;BME280;40747;49.480;8.658;2024-02-21T07:27:26;100960.72;;;7.62;89.40
54854;BME280;40747;49.480;8.658;2024-02-21T07:29:55;100959.00;;;7.58;89.50
54854;BME280;40747;49.480;8.658;2024-02-21T07:32:21;100947.63;;;7.60;89.95
54854;BME280;40747;49.480;8.658;2024-02-21T07:34:46;100931.94;;;7.54;89.24
54854;BME280;40747;49.480;8.658;2024-02-21T07:37:11;100947.59;;;7.62;90.17
54854;BME280;40747;49.480;8.658;2024-02-21T07:39:36;100944.06;;;7.67;89.72
54854;BME280;40747;49.480;8.658;2024-02-21T07:42:02;100943.22;;;7.64;88.80
54854;BME280;40747;49.480;8.658;2024-02-21T07:44:28;100939.63;;;7.74;89.47
54854;BME280;40747;49.480;8.658;2024-02-21T07:46:53;100950.13;;;7.74;88.91
54854;BME280;40747;49.480;8.658;2024-02-21T07:49:18;100958.78;;;7.85;89.10
54854;BME280;40747;49.480;8.658;2024-02-21T07:51:43;100944.72;;;7.90;88.62
54854;BME280;40747;49.480;8.658;2024-02-21T07:54:09;100945.59;;;7.93;89.05
54854;BME280;40747;49.480;8.658;2024-02-21T07:56:34;100942.91;;;7.96;89.10
54854;BME280;40747;49.480;8.658;2024-02-21T07:58:59;100938.53;;;7.98;88.09
54854;BME280;40747;49.480;8.658;2024-02-21T08:01:24;100940.28;;;7.99;88.18
54854;BME280;40747;49.480;8.658;2024-02-21T08:03:50;100921.91;;;7.98;87.13
54854;BME280;40747;49.480;8.658;2024-02-21T08:06:15;100927.81;;;8.17;87.86
54854;BME280;40747;49.480;8.658;2024-02-21T08:08:40;100928.63;;;8.25;86.47
54854;BME280;40747;49.480;8.658;2024-02-21T08:11:06;100921.59;;;8.27;86.93
54854;BME280;40747;49.480;8.658;2024-02-21T08:13:31;100921.53;;;8.32;86.99
54854;BME280;40747;49.480;8.658;2024-02-21T08:15:56;100919.72;;;8.37;87.59
54854;BME280;40747;49.480;8.658;2024-02-21T08:18:22;100925.84;;;8.39;86.78
54854;BME280;40747;49.480;8.658;2024-02-21T08:20:49;100919.66;;;8.48;86.44
54854;BME280;40747;49.480;8.658;2024-02-21T08:23:16;100916.81;;;8.62;85.91
54854;BME280;40747;49.480;8.658;2024-02-21T08:25:41;100920.31;;;8.64;84.63
54854;BME280;40747;49.480;8.658;2024-02-21T08:28:07;100925.44;;;8.75;85.26
54854;BME280;40747;49.480;8.658;2024-02-21T08:30:33;100906.31;;;8.63;84.00
54854;BME280;40747;49.480;8.658;2024-02-21T08:32:59;100907.03;;;8.73;85.69
54854;BME280;40747;49.480;8.658;2024-02-21T08:35:24;100909.66;;;8.76;85.04
54854;BME280;40747;49.480;8.658;2024-02-21T08:37:49;100901.75;;;8.78;84.37
54854;BME280;40747;49.480;8.658;2024-02-21T08:40:15;100898.13;;;8.87;83.75
54854;BME280;40747;49.480;8.658;2024-02-21T08:42:43;100884.69;;;9.05;84.00
54854;BME280;40747;49.480;8.658;2024-02-21T08:45:09;100880.25;;;9.09;82.57
54854;BME280;40747;49.480;8.658;2024-02-21T08:47:34;100856.03;;;8.90;83.77
54854;BME280;40747;49.480;8.658;2024-02-21T08:50:03;100873.38;;;9.01;82.67
54854;BME280;40747;49.480;8.658;2024-02-21T08:52:28;100888.97;;;9.12;82.83
54854;BME280;40747;49.480;8.658;2024-02-21T08:54:53;100868.78;;;9.16;82.41
54854;BME280;40747;49.480;8.658;2024-02-21T08:57:19;100873.94;;;9.22;83.44
54854;BME280;40747;49.480;8.658;2024-02-21T08:59:45;100865.31;;;9.12;82.77
54854;BME280;40747;49.480;8.658;2024-02-21T09:02:10;100871.31;;;9.22;82.90
54854;BME280;40747;49.480;8.658;2024-02-21T09:04:35;100872.88;;;9.31;82.92
54854;BME280;40747;49.480;8.658;2024-02-21T09:07:01;100869.22;;;9.43;82.57
54854;BME280;40747;49.480;8.658;2024-02-21T09:09:26;100861.22;;;9.47;82.62
54854;BME280;40747;49.480;8.658;2024-02-21T09:11:53;100863.06;;;9.42;82.59
54854;BME280;40747;49.480;8.658;2024-02-21T09:14:18;100861.31;;;9.43;81.55
54854;BME280;40747;49.480;8.658;2024-02-21T09:16:44;100858.59;;;9.47;81.08
54854;BME280;40747;49.480;8.658;2024-02-21T09:19:09;100852.19;;;9.62;82.29
54854;BME280;40747;49.480;8.658;2024-02-21T09:21:39;100840.47;;;9.80;81.26
54854;BME280;40747;49.480;8.658;2024-02-21T09:24:07;100839.22;;;10.00;80.32
54854;BME280;40747;49.480;8.658;2024-02-21T09:26:32;100833.47;;;10.23;80.53
54854;BME280;40747;49.480;8.658;2024-02-21T09:28:58;100833.22;;;10.36;79.21
54854;BME280;40747;49.480;8.658;2024-02-21T09:31:23;100838.84;;;10.61;78.57
54854;BME280;40747;49.480;8.658;2024-02-21T09:33:49;100833.88;;;10.86;78.44
54854;BME280;40747;49.480;8.658;2024-02-21T09:36:14;100838.31;;;10.84;76.48
54854;BME280;40747;49.480;8.658;2024-02-21T09:38:40;100831.06;;;10.94;77.67
54854;BME280;40747;49.480;8.658;2024-02-21T09:41:15;100808.03;;;11.01;75.76
54854;BME280;40747;49.480;8.658;2024-02-21T09:43:41;100819.16;;;11.13;75.70
54854;BME280;40747;49.480;8.658;2024-02-21T09:46:08;100823.03;;;11.35;75.82
54854;BME280;40747;49.480;8.658;2024-02-21T09:49:09;100820.72;;;11.55;73.51
54854;BME280;40747;49.480;8.658;2024-02-21T09:51:39;100810.41;;;11.46;73.70
54854;BME280;40747;49.480;8.658;2024-02-21T09:54:07;100808.03;;;11.35;74.53
54854;BME280;40747;49.480;8.658;2024-02-21T09:56:32;100810.25;;;11.18;73.99
54854;BME280;40747;49.480;8.658;2024-02-21T09:58:58;100791.88;;;11.14;75.21
54854;BME280;40747;49.480;8.658;2024-02-21T10:01:24;100809.84;;;11.35;73.79
54854;BME280;40747;49.480;8.658;2024-02-21T10:03:49;100795.91;;;11.29;75.29
54854;BME280;40747;49.480;8.658;2024-02-21T10:06:14;100793.13;;;11.34;73.85
54854;BME280;40747;49.480;8.658;2024-02-21T10:08:40;100806.47;;;11.62;73.21
54854;BME280;40747;49.480;8.658;2024-02-21T10:11:05;100792.84;;;11.78;73.77
54854;BME280;40747;49.480;8.658;2024-02-21T10:13:31;100796.75;;;11.63;73.87
54854;BME280;40747;49.480;8.658;2024-02-21T10:16:04;100787.28;;;11.87;73.19
54854;BME280;40747;49.480;8.658;2024-02-21T10:18:30;100785.16;;;11.69;73.59
54854;BME280;40747;49.480;8.658;2024-02-21T10:21:08;100779.66;;;11.78;72.83
54854;BME280;40747;49.480;8.658;2024-02-21T10:23:49;100772.25;;;11.91;72.53
54854;BME280;40747;49.480;8.658;2024-02-21T10:26:16;100776.44;;;11.98;72.77
54854;BME280;40747;49.480;8.658;2024-02-21T10:28:42;100773.31;;;12.15;71.82
54854;BME280;40747;49.480;8.658;2024-02-21T10:31:10;100770.09;;;12.34;69.93
54854;BME280;40747;49.480;8.658;2024-02-21T10:33:37;100760.38;;;12.36;71.32
54854;BME280;40747;49.480;8.658;2024-02-21T10:36:12;100755.38;;;12.55;71.32
54854;BME280;40747;49.480;8.658;2024-02-21T10:38:38;100766.03;;;12.23;70.53
54854;BME280;40747;49.480;8.658;2024-02-21T10:41:05;100760.91;;;12.19;70.49
54854;BME280;40747;49.480;8.658;2024-02-21T10:43:37;100749.63;;;12.12;72.01
54854;BME280;40747;49.480;8.658;2024-02-21T10:46:05;100745.66;;;12.27;72.01
54854;BME280;40747;49.480;8.658;2024-02-21T10:48:43;100739.72;;;12.49;70.46
54854;BME280;40747;49.480;8.658;2024-02-21T10:51:17;100732.94;;;12.40;71.01
54854;BME280;40747;49.480;8.658;2024-02-21T10:56:26;100710.66;;;12.75;69.34
54854;BME280;40747;49.480;8.658;2024-02-21T10:58:53;100710.44;;;12.55;69.27
54854;BME280;40747;49.480;8.658;2024-02-21T11:01:20;100702.56;;;12.26;71.01
54854;BME280;40747;49.480;8.658;2024-02-21T11:03:48;100712.47;;;12.18;71.08
54854;BME280;40747;49.480;8.658;2024-02-21T11:06:15;100708.63;;;12.28;70.89
54854;BME280;40747;49.480;8.658;2024-02-21T11:08:41;100698.97;;;12.56;70.98
54854;BME280;40747;49.480;8.658;2024-02-21T11:11:06;100697.56;;;12.44;70.04
54854;BME280;40747;49.480;8.658;2024-02-21T11:13:37;100692.00;;;12.53;71.28
54854;BME280;40747;49.480;8.658;2024-02-21T11:16:10;100686.00;;;12.48;70.62
54854;BME280;40747;49.480;8.658;2024-02-21T11:18:36;100678.53;;;12.61;70.47
54854;BME280;40747;49.480;8.658;2024-02-21T11:21:01;100681.13;;;12.62;68.78
54854;BME280;40747;49.480;8.658;2024-02-21T11:23:30;100675.63;;;12.69;69.66
54854;BME280;40747;49.480;8.658;2024-02-21T11:26:08;100668.16;;;12.55;68.12
54854;BME280;40747;49.480;8.658;2024-02-21T11:28:34;100666.84;;;12.41;68.52
54854;BME280;40747;49.480;8.658;2024-02-21T11:31:07;100632.69;;;12.35;68.76
54854;BME280;40747;49.480;8.658;2024-02-21T11:33:33;100657.75;;;12.50;67.82
54854;BME280;40747;49.480;8.658;2024-02-21T11:35:58;100656.00;;;12.51;67.25
54854;BME280;40747;49.480;8.658;2024-02-21T11:38:23;100648.41;;;12.40;67.64
54854;BME280;40747;49.480;8.658;2024-02-21T11:40:50;100644.44;;;12.53;69.54
54854;BME280;40747;49.480;8.658;2024-02-21T11:43:15;100638.94;;;12.59;68.90
54854;BME280;40747;49.480;8.658;2024-02-21T11:45:41;100621.38;;;12.58;69.03
54854;BME280;40747;49.480;8.658;2024-02-21T11:48:07;100624.38;;;12.48;68.52
54854;BME280;40747;49.480;8.658;2024-02-21T11:50:34;100606.19;;;12.38;68.10
54854;BME280;40747;49.480;8.658;2024-02-21T11:53:00;100607.22;;;12.34;68.43
54854;BME280;40747;49.480;8.658;2024-02-21T11:55:25;100599.72;;;12.47;67.37
54854;BME280;40747;49.480;8.658;2024-02-21T11:57:50;100603.16;;;12.51;67.06
54854;BME280;40747;49.480;8.658;2024-02-21T12:00:18;100594.50;;;12.45;66.63
54854;BME280;40747;49.480;8.658;2024-02-21T12:02:49;100593.84;;;12.12;67.10
54854;BME280;40747;49.480;8.658;2024-02-21T12:05:15;100594.16;;;12.29;68.25
54854;BME280;40747;49.480;8.658;2024-02-21T12:07:40;100581.06;;;12.26;67.63
54854;BME280;40747;49.480;8.658;2024-02-21T12:10:13;100582.22;;;12.18;67.97
54854;BME280;40747;49.480;8.658;2024-02-21T12:12:38;100575.59;;;12.31;68.65
54854;BME280;40747;49.480;8.658;2024-02-21T12:15:05;100569.91;;;12.43;65.76
54854;BME280;40747;49.480;8.658;2024-02-21T12:17:35;100571.72;;;12.41;66.84
54854;BME280;40747;49.480;8.658;2024-02-21T12:20:04;100563.81;;;12.41;67.66
54854;BME280;40747;49.480;8.658;2024-02-21T12:22:39;100553.09;;;12.46;67.46
54854;BME280;40747;49.480;8.658;2024-02-21T12:25:15;100549.91;;;12.61;67.54
54854;BME280;40747;49.480;8.658;2024-02-21T12:27:43;100549.63;;;12.44;66.43
54854;BME280;40747;49.480;8.658;2024-02-21T12:30:08;100543.56;;;12.42;67.05
54854;BME280;40747;49.480;8.658;2024-02-21T12:32:35;100537.56;;;12.37;67.21
54854;BME280;40747;49.480;8.658;2024-02-21T12:35:00;100521.66;;;12.38;68.69
54854;BME280;40747;49.480;8.658;2024-02-21T12:37:26;100523.38;;;12.39;67.59
54854;BME280;40747;49.480;8.658;2024-02-21T12:39:51;100521.25;;;12.51;66.59
54854;BME280;40747;49.480;8.658;2024-02-21T12:42:16;100510.47;;;12.55;67.36
54854;BME280;40747;49.480;8.658;2024-02-21T12:44:42;100496.47;;;12.53;66.46
54854;BME280;40747;49.480;8.658;2024-02-21T12:47:08;100501.66;;;12.56;66.33
54854;BME280;40747;49.480;8.658;2024-02-21T12:49:33;100492.00;;;12.55;66.76
54854;BME280;40747;49.480;8.658;2024-02-21T12:51:58;100491.66;;;12.65;66.11
54854;BME280;40747;49.480;8.658;2024-02-21T12:54:24;100482.72;;;12.69;66.32